Time;durP1;ratioP1;P1;durP2;ratioP2;P2;SDS_P1;SDS_P2;PMS_P1;PMS_P2;Temp;Humidity;BMP_temperature;BMP_pressure;BME280_temperature;BME280_humidity;BME280_pressure;Samples;Min_cycle;Max_cycle;Signal;HPM_P1;HPM_P2
2024/01/17 00:00:16;;;;;;;8.85;4.43;;;-0.30;99.90;;;;;;5035632;28;20048;-67
2024/01/17 00:02:42;;;;;;;9.80;4.55;;;-0.30;99.90;;;;;;5036258;28;20076;-66
2024/01/17 00:05:10;;;;;;;8.20;4.47;;;-0.30;99.90;;;;;;5031600;28;20076;-68
2024/01/17 00:07:36;;;;;;;7.40;3.97;;;-0.30;99.90;;;;;;5035305;28;20075;-67
2024/01/17 00:10:03;;;;;;;5.45;4.07;;;-0.40;99.90;;;;;;5050541;28;20168;-67
2024/01/17 00:12:29;;;;;;;8.10;4.13;;;-0.40;99.90;;;;;;5034872;28;20049;-68
2024/01/17 00:14:55;;;;;;;6.57;4.18;;;-0.40;99.90;;;;;;5041490;28;20095;-68
2024/01/17 00:17:21;;;;;;;8.35;4.35;;;-0.40;99.90;;;;;;5015564;28;20037;-65
2024/01/17 00:19:46;;;;;;;12.48;4.75;;;-0.40;99.90;;;;;;5034681;28;20473;-68
2024/01/17 00:22:14;;;;;;;9.48;4.60;;;-0.40;99.90;;;;;;5035088;28;20040;-66
2024/01/17 00:24:39;;;;;;;9.30;4.65;;;-0.40;99.90;;;;;;5031045;28;20056;-66
2024/01/17 00:27:05;;;;;;;7.80;4.45;;;-0.40;99.90;;;;;;5043633;28;20037;-66
2024/01/17 00:29:31;;;;;;;8.70;5.00;;;-0.40;99.90;;;;;;5030204;28;20488;-68
2024/01/17 00:31:57;;;;;;;11.07;4.35;;;-0.40;99.90;;;;;;5029584;28;20056;-67
2024/01/17 00:34:22;;;;;;;8.68;4.47;;;-0.40;99.90;;;;;;5036567;28;20045;-66
2024/01/17 00:36:48;;;;;;;7.78;4.45;;;-0.40;99.90;;;;;;5039708;28;20033;-67
2024/01/17 00:39:16;;;;;;;11.35;4.93;;;-0.40;99.90;;;;;;5030856;28;20045;-66
2024/01/17 00:41:42;;;;;;;11.95;5.25;;;-0.40;99.90;;;;;;5045609;28;20037;-66
2024/01/17 00:44:08;;;;;;;8.85;4.53;;;-0.30;99.90;;;;;;5039968;28;20033;-65
2024/01/17 00:46:33;;;;;;;9.52;5.10;;;-0.40;99.90;;;;;;5031950;28;20056;-66
2024/01/17 00:48:59;;;;;;;12.63;6.00;;;-0.40;99.90;;;;;;5038754;28;20041;-67
2024/01/17 00:51:25;;;;;;;14.50;6.45;;;-0.40;99.90;;;;;;5033792;28;20131;-67
2024/01/17 00:53:53;;;;;;;11.43;6.00;;;-0.40;99.90;;;;;;5048470;28;20405;-67
2024/01/17 00:56:18;;;;;;;16.73;6.18;;;-0.40;99.90;;;;;;5040942;28;20041;-67
2024/01/17 00:58:44;;;;;;;15.77;6.53;;;-0.50;99.90;;;;;;5030500;28;20393;-68
2024/01/17 01:01:10;;;;;;;13.73;6.28;;;-0.50;99.90;;;;;;5029115;28;20124;-65
2024/01/17 01:03:35;;;;;;;13.35;6.78;;;-0.50;99.90;;;;;;5030580;28;20060;-66
2024/01/17 01:06:01;;;;;;;11.35;6.78;;;-0.50;99.90;;;;;;5032428;28;20041;-67
2024/01/17 01:08:27;;;;;;;15.43;6.57;;;-0.50;99.90;;;;;;5031217;28;20120;-68
2024/01/17 01:10:52;;;;;;;12.80;6.57;;;-0.60;99.90;;;;;;5022460;28;20037;-68
2024/01/17 01:13:18;;;;;;;15.15;7.65;;;-0.50;99.90;;;;;;5033155;28;20077;-68
2024/01/17 01:15:43;;;;;;;13.38;7.10;;;-0.50;99.90;;;;;;5046721;28;20032;-66
2024/01/17 01:18:09;;;;;;;13.77;7.07;;;-0.50;99.90;;;;;;5036220;28;20120;-67
2024/01/17 01:20:35;;;;;;;14.98;7.50;;;-0.40;99.90;;;;;;5015843;28;20829;-67
2024/01/17 01:23:01;;;;;;;16.20;7.40;;;-0.40;99.90;;;;;;5026242;28;20072;-68
2024/01/17 01:25:26;;;;;;;14.45;6.80;;;-0.50;99.90;;;;;;5038891;28;20041;-68
2024/01/17 01:27:52;;;;;;;15.40;7.30;;;-0.50;99.90;;;;;;5033248;28;20103;-67
2024/01/17 01:30:17;;;;;;;13.75;7.30;;;-0.50;99.90;;;;;;5035573;28;20029;-67
2024/01/17 01:32:43;;;;;;;21.40;7.68;;;-0.50;99.90;;;;;;5037778;28;20049;-66
2024/01/17 01:35:09;;;;;;;14.20;7.57;;;-0.50;99.90;;;;;;5042655;28;20033;-68
2024/01/17 01:37:34;;;;;;;14.88;7.30;;;-0.50;99.90;;;;;;5019549;28;20120;-67
2024/01/17 01:40:00;;;;;;;14.80;7.45;;;-0.50;99.90;;;;;;5033555;28;20041;-67
2024/01/17 01:42:26;;;;;;;12.32;7.47;;;-0.50;99.90;;;;;;5027614;28;20037;-66
2024/01/17 01:44:51;;;;;;;14.05;6.95;;;-0.50;99.90;;;;;;5031830;28;20041;-66
2024/01/17 01:47:17;;;;;;;13.52;7.07;;;-0.40;99.90;;;;;;5028469;28;20045;-65
2024/01/17 01:49:46;;;;;;;12.25;6.80;;;-0.40;99.90;;;;;;5030085;28;20116;-65
2024/01/17 01:52:11;;;;;;;16.75;7.28;;;-0.40;99.90;;;;;;5034097;28;20482;-65
2024/01/17 01:54:38;;;;;;;15.35;7.43;;;-0.40;99.90;;;;;;5032105;28;20075;-67
2024/01/17 01:57:05;;;;;;;14.55;7.28;;;-0.40;99.90;;;;;;5033730;28;20053;-66
2024/01/17 01:59:31;;;;;;;10.90;7.38;;;-0.40;99.90;;;;;;5035549;28;20037;-66
2024/01/17 02:01:58;;;;;;;12.60;7.68;;;-0.50;99.90;;;;;;5012251;28;21877;-67
2024/01/17 02:04:27;;;;;;;15.45;8.73;;;-0.50;99.90;;;;;;5028986;28;20413;-66
2024/01/17 02:06:54;;;;;;;14.43;8.25;;;-0.50;99.90;;;;;;5035590;28;20128;-66
2024/01/17 02:09:20;;;;;;;15.57;8.60;;;-0.50;99.90;;;;;;5029600;28;20049;-69
2024/01/17 02:11:46;;;;;;;13.98;8.23;;;-0.50;99.90;;;;;;5017056;28;20048;-68
2024/01/17 02:14:13;;;;;;;16.13;8.82;;;-0.60;99.90;;;;;;5020794;28;20127;-66
2024/01/17 02:16:41;;;;;;;19.17;9.23;;;-0.50;99.90;;;;;;5041237;28;20508;-65
2024/01/17 02:19:10;;;;;;;16.25;9.02;;;-0.60;99.90;;;;;;5031351;28;20481;-65
2024/01/17 02:21:35;;;;;;;15.95;8.93;;;-0.60;99.90;;;;;;5032095;28;20048;-66
2024/01/17 02:24:18;;;;;;;18.38;9.82;;;-0.60;99.90;;;;;;5020896;28;20152;-66
2024/01/17 02:26:44;;;;;;;16.92;10.43;;;-0.60;99.90;;;;;;5037494;28;20075;-65
2024/01/17 02:29:10;;;;;;;24.00;10.73;;;-0.60;99.90;;;;;;5031999;28;20064;-66
2024/01/17 02:31:36;;;;;;;16.67;9.55;;;-0.60;99.90;;;;;;5038879;28;20155;-67
2024/01/17 02:34:02;;;;;;;18.90;10.52;;;-0.60;99.90;;;;;;5017573;28;20132;-66
2024/01/17 02:36:28;;;;;;;16.83;9.57;;;-0.60;99.90;;;;;;5044297;28;20083;-67
2024/01/17 02:38:54;;;;;;;22.52;10.13;;;-0.60;99.90;;;;;;5035950;28;20705;-66
2024/01/17 02:41:19;;;;;;;14.98;10.40;;;-0.60;99.90;;;;;;5031292;28;20038;-68
2024/01/17 02:43:45;;;;;;;22.98;12.00;;;-0.70;99.90;;;;;;5023412;28;20033;-66
2024/01/17 02:46:11;;;;;;;20.25;11.50;;;-0.60;99.90;;;;;;5032055;28;20101;-68
2024/01/17 02:48:37;;;;;;;18.13;10.55;;;-0.70;99.90;;;;;;5028065;28;20073;-67
2024/01/17 02:51:03;;;;;;;20.08;11.10;;;-0.70;99.90;;;;;;5036145;28;20053;-68
2024/01/17 02:53:28;;;;;;;18.88;11.05;;;-0.70;99.90;;;;;;5043997;28;20033;-67
2024/01/17 02:55:54;;;;;;;22.30;11.80;;;-0.70;99.90;;;;;;5029128;28;20095;-65
2024/01/17 02:58:19;;;;;;;15.60;10.70;;;-0.70;99.90;;;;;;5025194;28;20041;-68
2024/01/17 03:00:45;;;;;;;26.02;11.68;;;-0.70;99.90;;;;;;5028814;28;20151;-68
2024/01/17 03:03:11;;;;;;;19.20;10.95;;;-0.70;99.90;;;;;;5035692;28;20072;-68
2024/01/17 03:05:37;;;;;;;23.63;10.75;;;-0.70;99.90;;;;;;5032736;28;20529;-69
2024/01/17 03:08:05;;;;;;;18.92;10.60;;;-0.80;99.90;;;;;;5031027;28;20034;-68
2024/01/17 03:10:32;;;;;;;24.40;11.52;;;-0.70;99.90;;;;;;5039435;28;20041;-66
2024/01/17 03:12:58;;;;;;;21.80;11.50;;;-0.70;99.90;;;;;;5034093;28;20430;-67
2024/01/17 03:15:23;;;;;;;19.95;11.55;;;-0.70;99.90;;;;;;5035825;28;20065;-67
2024/01/17 03:17:50;;;;;;;20.00;11.73;;;-0.80;99.90;;;;;;5034429;28;20505;-68
2024/01/17 03:20:16;;;;;;;21.48;11.50;;;-0.80;99.90;;;;;;5040881;28;20061;-67
2024/01/17 03:22:41;;;;;;;17.98;11.32;;;-0.70;99.90;;;;;;5033688;28;20115;-69
2024/01/17 03:25:08;;;;;;;20.30;10.52;;;-0.70;99.90;;;;;;5017568;28;20043;-68
2024/01/17 03:27:35;;;;;;;22.35;11.70;;;-0.70;99.90;;;;;;5021464;28;20064;-67
2024/01/17 03:30:01;;;;;;;22.73;11.20;;;-0.80;99.90;;;;;;5031467;28;20037;-67
2024/01/17 03:32:27;;;;;;;20.58;12.15;;;-0.70;99.90;;;;;;5030912;28;20124;-68
2024/01/17 03:34:55;;;;;;;23.33;12.35;;;-0.70;99.90;;;;;;5032050;28;20025;-67
2024/01/17 03:37:22;;;;;;;22.60;12.35;;;-0.70;99.90;;;;;;5032593;28;20379;-67
2024/01/17 03:39:47;;;;;;;22.58;10.88;;;-0.70;99.90;;;;;;5020152;28;20500;-66
2024/01/17 03:42:16;;;;;;;21.10;11.77;;;-0.70;99.90;;;;;;5032871;28;20041;-68
2024/01/17 03:44:45;;;;;;;22.90;11.35;;;-0.70;99.90;;;;;;5030561;28;20075;-67
2024/01/17 03:47:12;;;;;;;26.83;12.50;;;-0.80;99.90;;;;;;5039902;28;20134;-68
2024/01/17 03:49:38;;;;;;;20.65;10.88;;;-0.70;99.90;;;;;;5035631;28;20535;-67
2024/01/17 03:52:06;;;;;;;20.23;11.65;;;-0.80;99.90;;;;;;5034781;28;20041;-68
2024/01/17 03:54:31;;;;;;;17.35;10.82;;;-0.80;99.90;;;;;;5018496;28;20055;-68
2024/01/17 03:56:57;;;;;;;20.58;11.57;;;-0.80;99.90;;;;;;5031172;28;20037;-68
2024/01/17 03:59:22;;;;;;;19.55;11.25;;;-0.80;99.90;;;;;;5038732;28;20470;-68
2024/01/17 04:01:48;;;;;;;18.60;10.60;;;-0.80;99.90;;;;;;5030807;28;20041;-66
2024/01/17 04:04:14;;;;;;;20.02;10.80;;;-0.80;99.90;;;;;;5034275;28;20048;-66
2024/01/17 04:06:40;;;;;;;21.88;12.30;;;-0.80;99.90;;;;;;5030682;28;20049;-67
2024/01/17 04:09:06;;;;;;;21.05;10.95;;;-0.80;99.90;;;;;;5033548;28;20132;-67
2024/01/17 04:11:32;;;;;;;23.35;12.82;;;-0.80;99.90;;;;;;5044877;28;20575;-68
2024/01/17 04:13:57;;;;;;;19.88;11.88;;;-0.80;99.90;;;;;;5035433;28;20550;-67
2024/01/17 04:16:23;;;;;;;18.10;10.45;;;-0.80;99.90;;;;;;5022822;28;20084;-67
2024/01/17 04:18:48;;;;;;;18.20;11.23;;;-0.90;99.90;;;;;;5032649;28;20486;-68
2024/01/17 04:21:18;;;;;;;20.23;10.75;;;-0.80;99.90;;;;;;5027059;28;20041;-66
2024/01/17 04:23:45;;;;;;;22.35;11.05;;;-0.80;99.90;;;;;;5009795;28;20495;-67
2024/01/17 04:26:24;;;;;;;20.45;10.43;;;-0.90;99.90;;;;;;5033375;28;20040;-67
2024/01/17 04:28:50;;;;;;;17.13;10.43;;;-0.90;99.90;;;;;;5041408;28;20614;-67
2024/01/17 04:31:24;;;;;;;20.05;9.88;;;-0.90;99.90;;;;;;5036158;28;20060;-67
2024/01/17 04:33:50;;;;;;;20.77;10.45;;;-0.90;99.90;;;;;;5031170;28;20056;-67
2024/01/17 04:36:16;;;;;;;17.08;10.45;;;-0.90;99.90;;;;;;5042698;28;20033;-68
2024/01/17 04:38:43;;;;;;;17.10;9.73;;;-0.90;99.90;;;;;;5023332;28;20033;-68
2024/01/17 04:41:11;;;;;;;16.95;10.77;;;-0.90;99.90;;;;;;5038260;28;20041;-68
2024/01/17 04:43:37;;;;;;;16.55;10.30;;;-0.90;99.90;;;;;;5048326;28;20041;-67
2024/01/17 04:46:02;;;;;;;18.13;10.82;;;-0.90;99.90;;;;;;5039076;28;20075;-68
2024/01/17 04:48:28;;;;;;;17.95;10.45;;;-0.90;99.90;;;;;;5033993;28;20040;-66
2024/01/17 04:50:58;;;;;;;18.05;10.75;;;-0.90;99.90;;;;;;5029397;28;20052;-68
2024/01/17 04:53:24;;;;;;;14.40;9.32;;;-0.90;99.90;;;;;;5015912;28;20052;-68
2024/01/17 04:55:50;;;;;;;16.63;9.60;;;-0.90;99.90;;;;;;5007282;28;20066;-68
2024/01/17 04:58:17;;;;;;;14.65;9.68;;;-0.90;99.90;;;;;;5039215;28;20037;-67
2024/01/17 05:00:46;;;;;;;18.25;9.93;;;-0.90;99.90;;;;;;5031704;28;20110;-69
2024/01/17 05:03:12;;;;;;;17.05;9.60;;;-0.90;99.90;;;;;;5031931;28;20067;-67
2024/01/17 05:05:37;;;;;;;19.17;9.55;;;-0.80;99.90;;;;;;5035331;28;20048;-67
2024/01/17 05:08:04;;;;;;;15.55;9.40;;;-0.90;99.90;;;;;;5029670;28;20068;-68
2024/01/17 05:10:30;;;;;;;17.15;9.32;;;-0.80;99.90;;;;;;5032334;28;20037;-67
2024/01/17 05:12:55;;;;;;;17.23;8.50;;;-0.80;99.90;;;;;;5047948;28;20106;-68
2024/01/17 05:15:21;;;;;;;24.35;9.50;;;-0.80;99.90;;;;;;5030878;28;20064;-68
2024/01/17 05:17:47;;;;;;;15.20;9.68;;;-0.80;99.90;;;;;;5039568;28;20366;-69
2024/01/17 05:20:14;;;;;;;15.30;8.30;;;-0.80;99.90;;;;;;5034012;28;20064;-67
2024/01/17 05:22:40;;;;;;;15.27;9.00;;;-0.80;99.90;;;;;;5039507;28;20037;-68
2024/01/17 05:25:08;;;;;;;13.35;8.98;;;-0.80;99.90;;;;;;5036885;28;20495;-67
2024/01/17 05:27:34;;;;;;;16.80;9.27;;;-0.80;99.90;;;;;;5045558;28;20037;-68
2024/01/17 05:29:59;;;;;;;15.90;8.52;;;-0.90;99.90;;;;;;5028407;28;20037;-69
2024/01/17 05:32:25;;;;;;;16.23;9.05;;;-0.90;99.90;;;;;;5035808;28;20120;-68
2024/01/17 05:34:53;;;;;;;15.20;9.32;;;-0.90;99.90;;;;;;5016422;28;20040;-69
2024/01/17 05:37:21;;;;;;;18.00;9.35;;;-0.90;99.90;;;;;;5033555;28;20037;-67
2024/01/17 05:39:47;;;;;;;19.25;10.00;;;-0.90;99.90;;;;;;5027069;28;20037;-68
2024/01/17 05:42:13;;;;;;;15.88;9.23;;;-0.90;99.90;;;;;;5011256;28;20042;-68
2024/01/17 05:44:39;;;;;;;17.05;9.25;;;-1.00;99.90;;;;;;5036735;28;20040;-67
2024/01/17 05:47:04;;;;;;;19.95;9.63;;;-0.90;99.90;;;;;;5014081;28;20041;-68
2024/01/17 05:49:30;;;;;;;17.02;9.45;;;-1.00;99.90;;;;;;5028059;28;20498;-67
2024/01/17 05:51:56;;;;;;;16.45;9.93;;;-0.90;99.90;;;;;;5034512;28;20452;-68
2024/01/17 05:54:21;;;;;;;15.50;9.63;;;-0.90;99.90;;;;;;5027267;28;20044;-67
2024/01/17 05:56:47;;;;;;;15.35;9.20;;;-0.90;99.90;;;;;;5030502;28;20037;-69
2024/01/17 05:59:13;;;;;;;17.20;9.40;;;-0.90;99.90;;;;;;5038762;28;20033;-68
2024/01/17 06:01:39;;;;;;;17.48;9.32;;;-1.00;99.90;;;;;;5035429;28;20119;-69
2024/01/17 06:04:04;;;;;;;13.32;8.93;;;-1.00;99.90;;;;;;5036012;28;20044;-69
2024/01/17 06:06:30;;;;;;;14.88;8.15;;;-1.00;99.90;;;;;;5042836;28;20431;-68
2024/01/17 06:08:56;;;;;;;14.07;8.93;;;-1.00;99.90;;;;;;5025098;28;20041;-69
2024/01/17 06:11:21;;;;;;;14.30;8.45;;;-1.00;99.90;;;;;;5011768;28;20037;-68
2024/01/17 06:13:48;;;;;;;17.33;9.30;;;-0.90;99.90;;;;;;5038925;28;20049;-68
2024/01/17 06:16:13;;;;;;;15.90;9.50;;;-1.00;99.90;;;;;;5033098;28;20041;-68
2024/01/17 06:18:39;;;;;;;14.05;8.32;;;-1.00;99.90;;;;;;5022158;28;20034;-67
2024/01/17 06:21:05;;;;;;;17.40;8.70;;;-0.90;99.90;;;;;;5032772;28;20124;-68
2024/01/17 06:23:31;;;;;;;15.32;8.25;;;-1.00;99.90;;;;;;5019137;28;20041;-68
2024/01/17 06:25:57;;;;;;;14.70;8.75;;;-0.90;99.90;;;;;;5014880;28;20637;-69
2024/01/17 06:28:22;;;;;;;15.90;8.65;;;-0.90;99.90;;;;;;5034131;28;20041;-67
2024/01/17 06:30:48;;;;;;;16.52;9.70;;;-1.00;99.90;;;;;;5037365;28;20495;-68
2024/01/17 06:33:14;;;;;;;12.23;8.27;;;-1.00;99.90;;;;;;5044951;28;20493;-68
2024/01/17 06:35:39;;;;;;;15.10;8.52;;;-1.00;99.90;;;;;;5045099;28;20072;-68
2024/01/17 06:38:05;;;;;;;12.48;7.88;;;-1.00;99.90;;;;;;5042886;28;20045;-67
2024/01/17 06:40:32;;;;;;;16.55;8.70;;;-1.10;99.90;;;;;;5027902;28;20124;-68
2024/01/17 06:42:57;;;;;;;16.90;8.57;;;-1.00;99.90;;;;;;5029975;28;20040;-67
2024/01/17 06:45:25;;;;;;;14.25;8.80;;;-1.00;99.90;;;;;;5036612;28;20103;-68
2024/01/17 06:47:51;;;;;;;17.08;8.93;;;-1.00;99.90;;;;;;5035173;28;20048;-68
2024/01/17 06:50:18;;;;;;;14.15;8.45;;;-1.10;99.90;;;;;;5034728;28;20830;-68
2024/01/17 06:52:44;;;;;;;15.77;8.80;;;-1.10;99.90;;;;;;5024239;28;20403;-68
2024/01/17 06:55:10;;;;;;;15.30;9.35;;;-1.10;99.90;;;;;;5018819;28;20033;-68
2024/01/17 06:57:36;;;;;;;19.58;9.52;;;-1.20;99.90;;;;;;5037945;28;20033;-67
2024/01/17 07:00:03;;;;;;;21.10;9.75;;;-1.30;99.90;;;;;;5031131;28;20044;-67
2024/01/17 07:02:29;;;;;;;16.85;9.95;;;-1.30;99.90;;;;;;5030079;28;20141;-67
2024/01/17 07:04:54;;;;;;;16.73;9.98;;;-1.30;99.90;;;;;;5043339;28;20115;-68
2024/01/17 07:07:20;;;;;;;17.02;9.50;;;-1.40;99.90;;;;;;5027825;28;20033;-68
2024/01/17 07:09:45;;;;;;;17.38;8.90;;;-1.40;99.90;;;;;;5035950;28;20029;-68
2024/01/17 07:12:11;;;;;;;13.88;9.00;;;-1.50;99.90;;;;;;5031886;28;20130;-68
2024/01/17 07:14:37;;;;;;;19.65;9.27;;;-1.50;99.90;;;;;;5044139;28;20796;-68
2024/01/17 07:17:02;;;;;;;17.17;9.63;;;-1.50;99.90;;;;;;5030499;28;20029;-68
2024/01/17 07:19:28;;;;;;;19.85;9.45;;;-1.60;99.90;;;;;;5022973;28;20069;-68
2024/01/17 07:21:54;;;;;;;20.10;9.25;;;-1.60;99.90;;;;;;5036415;28;20056;-68
2024/01/17 07:24:20;;;;;;;17.02;9.52;;;-1.60;99.90;;;;;;5031427;28;20050;-68
2024/01/17 07:26:46;;;;;;;16.27;8.90;;;-1.70;99.90;;;;;;5032723;28;20049;-67
2024/01/17 07:29:11;;;;;;;16.80;8.85;;;-1.70;99.90;;;;;;5038176;28;20037;-68
2024/01/17 07:31:38;;;;;;;19.83;9.82;;;-1.80;99.90;;;;;;5025414;28;20532;-68
2024/01/17 07:34:04;;;;;;;18.70;9.88;;;-1.90;99.90;;;;;;5030058;28;20132;-68
2024/01/17 07:36:29;;;;;;;17.80;9.75;;;-1.90;99.90;;;;;;5035880;28;20576;-68
2024/01/17 07:38:55;;;;;;;17.83;9.82;;;-2.00;99.90;;;;;;5045042;28;20052;-69
2024/01/17 07:41:20;;;;;;;20.48;9.05;;;-2.00;99.90;;;;;;5040931;28;20079;-68
2024/01/17 07:43:46;;;;;;;16.25;10.02;;;-2.00;99.90;;;;;;5021814;28;20037;-69
2024/01/17 07:46:12;;;;;;;19.17;10.73;;;-2.10;99.90;;;;;;5047296;28;20047;-68
2024/01/17 07:48:38;;;;;;;16.20;9.77;;;-2.10;99.90;;;;;;5036093;28;20077;-68
2024/01/17 07:51:05;;;;;;;18.52;9.63;;;-2.10;99.90;;;;;;5037354;28;20118;-69
2024/01/17 07:53:31;;;;;;;20.00;10.75;;;-2.10;99.90;;;;;;5040901;28;20510;-68
2024/01/17 07:55:58;;;;;;;19.05;10.40;;;-2.20;99.90;;;;;;5027217;28;20120;-68
2024/01/17 07:58:24;;;;;;;17.45;10.07;;;-2.20;99.90;;;;;;5033977;28;20038;-69
2024/01/17 08:00:49;;;;;;;18.20;9.25;;;-2.20;99.90;;;;;;5041572;28;20813;-68
2024/01/17 08:03:15;;;;;;;17.80;9.13;;;-2.20;99.90;;;;;;5039327;28;20452;-69
2024/01/17 08:05:41;;;;;;;16.60;9.93;;;-2.20;99.90;;;;;;5036354;28;20115;-68
2024/01/17 08:08:07;;;;;;;18.80;9.10;;;-2.20;99.90;;;;;;5045497;28;20048;-68
2024/01/17 08:10:33;;;;;;;19.13;9.13;;;-2.20;99.90;;;;;;5014695;28;20045;-69
2024/01/17 08:12:58;;;;;;;17.67;9.88;;;-2.20;99.90;;;;;;5043780;28;20037;-68
2024/01/17 08:15:24;;;;;;;15.85;10.20;;;-2.20;99.90;;;;;;5021434;28;20518;-70
2024/01/17 08:17:50;;;;;;;17.90;10.10;;;-2.20;99.90;;;;;;5029417;28;20047;-69
2024/01/17 08:20:16;;;;;;;21.17;9.60;;;-2.20;99.90;;;;;;5035383;28;20036;-69
2024/01/17 08:22:43;;;;;;;15.00;9.27;;;-2.20;99.90;;;;;;5018459;28;20037;-67
2024/01/17 08:25:09;;;;;;;19.75;9.85;;;-2.20;99.90;;;;;;5017281;28;20037;-68
2024/01/17 08:27:36;;;;;;;26.80;9.52;;;-2.20;99.90;;;;;;5031506;28;20053;-68
2024/01/17 08:30:04;;;;;;;15.68;9.45;;;-2.20;99.90;;;;;;5025828;28;20091;-70
2024/01/17 08:32:29;;;;;;;21.85;10.07;;;-2.20;99.90;;;;;;5029486;28;20735;-70
2024/01/17 08:34:55;;;;;;;19.15;9.50;;;-2.20;99.90;;;;;;5030243;28;20045;-69
2024/01/17 08:37:21;;;;;;;19.63;8.95;;;-2.20;99.90;;;;;;5038074;28;20120;-70
2024/01/17 08:39:47;;;;;;;22.13;9.02;;;-2.20;99.90;;;;;;5041100;28;20590;-69
2024/01/17 08:42:14;;;;;;;16.70;10.00;;;-2.10;99.90;;;;;;5044475;28;20065;-69
2024/01/17 08:44:45;;;;;;;15.80;8.70;;;-2.20;99.90;;;;;;5030760;28;20433;-70
2024/01/17 08:47:11;;;;;;;15.35;9.02;;;-2.20;99.90;;;;;;5032327;28;20048;-70
2024/01/17 08:49:40;;;;;;;18.70;9.43;;;-2.20;99.90;;;;;;5045428;28;20040;-70
2024/01/17 08:52:07;;;;;;;16.13;9.20;;;-2.10;99.90;;;;;;5021559;28;20068;-69
2024/01/17 08:54:34;;;;;;;17.60;9.00;;;-2.10;99.90;;;;;;5033085;28;20037;-70
2024/01/17 08:57:01;;;;;;;15.60;8.38;;;-2.10;99.90;;;;;;5036133;28;20040;-70
2024/01/17 08:59:27;;;;;;;17.50;9.15;;;-2.10;99.90;;;;;;5044986;28;20040;-70
2024/01/17 09:01:53;;;;;;;15.07;8.82;;;-2.10;99.90;;;;;;5040437;28;20076;-69
2024/01/17 09:04:19;;;;;;;21.52;8.68;;;-2.10;99.90;;;;;;5030771;28;20111;-70
2024/01/17 09:06:45;;;;;;;14.88;8.38;;;-2.10;99.90;;;;;;5013866;28;20075;-69
2024/01/17 09:09:12;;;;;;;16.30;8.70;;;-2.10;99.90;;;;;;5030020;28;20547;-69
2024/01/17 09:11:38;;;;;;;15.80;7.97;;;-2.00;99.90;;;;;;5032098;28;20037;-69
2024/01/17 09:14:04;;;;;;;19.45;10.13;;;-2.00;99.90;;;;;;5049470;28;20496;-68
2024/01/17 09:16:30;;;;;;;16.95;8.05;;;-1.90;99.90;;;;;;5048551;28;20052;-69
2024/01/17 09:18:56;;;;;;;16.73;9.15;;;-1.90;99.90;;;;;;5032397;28;20033;-69
2024/01/17 09:21:22;;;;;;;16.98;9.02;;;-1.90;99.90;;;;;;5045987;28;20041;-69
2024/01/17 09:23:48;;;;;;;13.18;8.50;;;-1.80;99.90;;;;;;5041768;28;20068;-68
2024/01/17 09:26:13;;;;;;;13.85;8.32;;;-1.80;99.90;;;;;;5037768;28;20053;-69
2024/01/17 09:28:39;;;;;;;15.57;7.78;;;-1.80;99.90;;;;;;5048059;28;20374;-69
2024/01/17 09:31:05;;;;;;;14.23;8.48;;;-1.70;99.90;;;;;;5047819;28;20505;-69
2024/01/17 09:33:30;;;;;;;13.65;8.13;;;-1.70;99.90;;;;;;5040181;28;20045;-69
2024/01/17 09:35:56;;;;;;;13.00;7.80;;;-1.70;99.90;;;;;;5021523;28;20041;-70
2024/01/17 09:38:22;;;;;;;15.77;8.77;;;-1.60;99.90;;;;;;5020986;28;20037;-69
2024/01/17 09:40:49;;;;;;;16.33;8.20;;;-1.60;99.90;;;;;;5011060;28;20476;-69
2024/01/17 09:43:18;;;;;;;16.85;9.32;;;-1.50;99.90;;;;;;5035128;28;20592;-69
2024/01/17 09:45:44;;;;;;;16.20;8.32;;;-1.50;99.90;;;;;;5028749;28;20045;-70
2024/01/17 09:48:12;;;;;;;15.65;8.57;;;-1.40;99.90;;;;;;5034077;28;20041;-68
2024/01/17 09:50:38;;;;;;;14.50;8.68;;;-1.30;99.90;;;;;;5029231;28;20037;-70
2024/01/17 09:53:12;;;;;;;20.52;10.15;;;-1.30;99.90;;;;;;5021074;28;20034;-69
2024/01/17 09:55:40;;;;;;;13.38;8.10;;;-1.20;99.90;;;;;;5035707;28;20171;-69
2024/01/17 09:58:07;;;;;;;16.45;8.45;;;-1.20;99.90;;;;;;5041912;28;20774;-68
2024/01/17 10:00:34;;;;;;;13.82;7.55;;;-1.20;99.90;;;;;;5044301;28;20045;-69
2024/01/17 10:03:02;;;;;;;15.80;8.25;;;-1.00;99.90;;;;;;5034170;28;20122;-68
2024/01/17 10:05:32;;;;;;;15.70;7.95;;;-1.00;99.90;;;;;;5035332;28;20055;-68
2024/01/17 10:08:01;;;;;;;15.80;7.28;;;-1.00;99.90;;;;;;5029629;28;20138;-68
2024/01/17 10:10:27;;;;;;;14.88;7.93;;;-1.00;99.90;;;;;;5047834;28;20037;-68
2024/01/17 10:12:54;;;;;;;12.55;7.75;;;-0.90;99.90;;;;;;5013481;28;20386;-68
2024/01/17 10:15:23;;;;;;;14.32;7.68;;;-0.90;99.90;;;;;;5030934;28;20094;-68
2024/01/17 10:17:49;;;;;;;13.98;7.38;;;-0.80;99.90;;;;;;5031964;28;20045;-69
2024/01/17 10:20:16;;;;;;;14.05;7.55;;;-0.80;99.90;;;;;;5032120;28;20052;-68
2024/01/17 10:22:45;;;;;;;22.33;8.18;;;-0.70;99.90;;;;;;5034168;28;20037;-68
2024/01/17 10:25:12;;;;;;;27.38;8.40;;;-0.70;99.90;;;;;;5022617;28;20063;-69
2024/01/17 10:27:37;;;;;;;15.48;7.38;;;-0.60;99.90;;;;;;5038007;28;20045;-69
2024/01/17 10:30:04;;;;;;;17.70;8.35;;;-0.50;99.90;;;;;;5028653;28;20045;-68
2024/01/17 10:32:31;;;;;;;14.48;7.78;;;-0.50;99.90;;;;;;5026856;28;20493;-68
2024/01/17 10:34:58;;;;;;;11.95;7.63;;;-0.50;99.90;;;;;;5041689;28;20135;-67
2024/01/17 10:37:24;;;;;;;12.90;7.53;;;-0.50;99.90;;;;;;5044789;28;20045;-68
2024/01/17 10:40:09;;;;;;;15.55;7.25;;;-0.60;99.90;;;;;;5033226;28;20096;-68
2024/01/17 10:42:34;;;;;;;12.23;7.85;;;-0.50;99.90;;;;;;5021147;28;20179;-68
2024/01/17 10:45:00;;;;;;;14.18;7.60;;;-0.60;99.90;;;;;;5017897;28;20709;-68
2024/01/17 10:47:26;;;;;;;13.27;7.53;;;-0.50;99.90;;;;;;5027407;28;20136;-68
2024/01/17 10:49:51;;;;;;;12.00;7.43;;;-0.50;99.90;;;;;;5028526;28;20347;-68
2024/01/17 10:52:19;;;;;;;14.25;8.27;;;-0.40;99.90;;;;;;5012359;28;20034;-68
2024/01/17 10:55:04;;;;;;;15.77;7.95;;;-0.40;99.90;;;;;;5030640;28;20038;-68
2024/01/17 10:57:34;;;;;;;12.38;7.53;;;-0.30;99.90;;;;;;5014364;28;20117;-67
2024/01/17 11:00:03;;;;;;;10.55;7.10;;;-0.30;99.90;;;;;;5027574;28;20040;-67
2024/01/17 11:02:29;;;;;;;13.17;7.60;;;-0.20;99.90;;;;;;5025455;28;20820;-67
2024/01/17 11:05:05;;;;;;;13.25;7.20;;;-0.20;99.90;;;;;;5016575;28;20044;-68
2024/01/17 11:07:32;;;;;;;15.75;7.45;;;-0.30;99.90;;;;;;5042902;28;20041;-68
2024/01/17 11:10:02;;;;;;;11.85;7.35;;;-0.30;99.90;;;;;;5043495;28;20045;-68
2024/01/17 11:12:31;;;;;;;13.32;7.75;;;-0.30;99.90;;;;;;5037813;28;20055;-68
2024/01/17 11:15:03;;;;;;;16.75;8.15;;;-0.20;99.90;;;;;;5032656;28;20037;-68
2024/01/17 11:17:32;;;;;;;13.00;6.82;;;-0.20;99.90;;;;;;5034984;28;20063;-68
2024/01/17 11:20:02;;;;;;;12.40;6.60;;;-0.20;99.90;;;;;;5035185;28;20424;-68
2024/01/17 11:22:28;;;;;;;;;;;-0.10;99.90;;;;;;5032435;28;20061;-68
2024/01/17 11:25:21;;;;;;;12.70;7.18;;;-0.20;99.90;;;;;;5031208;28;19983;-68
2024/01/17 11:28:16;;;;;;;16.23;7.47;;;-0.20;99.90;;;;;;5026255;28;20048;-67
2024/01/17 11:30:48;;;;;;;11.48;6.97;;;-0.20;99.90;;;;;;5050445;28;20068;-67
2024/01/17 11:33:14;;;;;;;17.55;7.50;;;-0.10;99.90;;;;;;5050564;28;20053;-67
2024/01/17 11:35:47;;;;;;;11.73;6.90;;;-0.20;99.90;;;;;;5031073;28;20064;-67
2024/01/17 11:38:23;;;;;;;14.02;7.47;;;-0.20;99.90;;;;;;5036841;28;20542;-68
2024/01/17 11:41:09;;;;;;;12.93;7.32;;;-0.10;99.90;;;;;;5045019;28;20065;-67
2024/01/17 11:43:41;;;;;;;14.15;7.22;;;-0.10;99.90;;;;;;5032344;28;20046;-68
2024/01/17 11:46:10;;;;;;;14.07;6.78;;;-0.10;99.90;;;;;;5039345;28;20120;-66
2024/01/17 11:48:38;;;;;;;15.80;7.50;;;-0.10;99.90;;;;;;5036609;28;20119;-67
2024/01/17 11:51:16;;;;;;;11.50;6.47;;;-0.10;99.90;;;;;;5037736;28;20045;-67
2024/01/17 11:53:48;;;;;;;14.07;7.60;;;-0.20;99.90;;;;;;5044011;28;20044;-66
2024/01/17 11:56:15;;;;;;;11.23;6.75;;;-0.10;99.90;;;;;;5042324;28;20045;-68
2024/01/17 11:58:46;;;;;;;14.10;6.85;;;0.00;99.90;;;;;;5046609;28;20042;-68
2024/01/17 12:01:40;;;;;;;11.50;6.30;;;-0.10;99.90;;;;;;5041493;28;20041;-68
2024/01/17 12:04:19;;;;;;;11.48;6.43;;;-0.10;99.90;;;;;;5033026;28;20086;-66
2024/01/17 12:06:49;;;;;;;9.93;6.10;;;0.00;99.90;;;;;;5036397;28;20130;-68
2024/01/17 12:09:18;;;;;;;;;;;0.00;99.90;;;;;;5039879;28;20182;-67
2024/01/17 12:11:48;;;;;;;18.05;6.45;;;0.00;99.90;;;;;;5041711;28;20655;-67
2024/01/17 12:14:17;;;;;;;11.48;6.70;;;0.10;99.90;;;;;;5038313;28;20473;-67
2024/01/17 12:16:45;;;;;;;10.57;6.20;;;0.10;99.90;;;;;;5038348;28;20083;-67
2024/01/17 12:19:11;;;;;;;8.85;6.18;;;0.10;99.90;;;;;;5019470;28;20131;-66
2024/01/17 12:21:37;;;;;;;11.75;6.60;;;0.20;99.90;;;;;;5021876;28;20492;-66
2024/01/17 12:24:04;;;;;;;11.65;6.93;;;0.20;99.90;;;;;;5030250;28;20045;-67
2024/01/17 12:26:34;;;;;;;15.15;6.63;;;0.10;99.90;;;;;;5046245;28;20070;-67
2024/01/17 12:29:08;;;;;;;11.43;6.60;;;0.10;99.90;;;;;;5036707;28;20037;-66
2024/01/17 12:31:34;;;;;;;9.65;5.97;;;0.20;99.90;;;;;;5025721;28;20065;-67
2024/01/17 12:33:59;;;;;;;13.70;6.80;;;0.20;99.90;;;;;;5019498;28;20057;-67